Kezdőlap
METAR-TAF:

METAR-TAF

Repülőterek :

Burgos, Spanyolország

földrajzi szélesség: 42-22N, földrajzi hosszúság: 003-38W, magasság: 894 m

Jelenlegi meteorológiai megfigyelések

A jelentés 20 perccel ezelõtt készült, 13:30 UTC
Dél-délnyugati szél 17 kt
Hőmérséklet 9°C
Páratartalom 76%
Légköri nyomás 1010 hPa
Látótávolság 10 km, vagy több
Borult 2700 lábon

METAR: LEBG 151330Z 20017KT 9999 OVC027 09/05 Q1010

Idő: 14:50 (13:50 UTC)

Előrejelzés

A jelentés 2 órával és 50 perccel ezelõtt készült, 11:00 UTC
Az előrejelzés 15-én 12 óra UTC és 15-én 21 óra UTC között érvényes
Dél-délnyugati szél 15 kt
Látótávolság 10 km, vagy több
Szakadozott felhőzet 4000 lábon
15-én 12 óra UTC és 15-én 17 óra UTC között ideiglenes
Dél-délnyugati szél 20 kt széllökések: 32 kt

TAF: LEBG 151100Z 1512/1521 20015KT 9999 BKN040 TEMPO 1512/1517 21020G32KT

Meteorológiai megfigyelések és előrejelzések több, mint 4000 repülőtéren (METAR és TAF jelentéseket).

A térképen piros és sárga pontok jelzik az elérhető meteorológiai állomásokat.

Mozgassa az egeret a pont fölött, hogy megjelenjen az állomás neve.

Azután kattintson az időjárási megfigyelések és előrejelzések megtekintéséhez.

A térkép megváltoztatása: kattintson a fekete keresztel jelölt zöld gombra ráközelítéshez, a vonallal jelölt zöld gombra távolításhoz, vagy a zöld nyilakra a szomszédos térképek eléréséhez.


METAR-TAF: